createdAt,value
2019-06-20T00:01:52.327Z,10.27
2019-06-20T00:04:21.034Z,13.33
2019-06-20T00:06:49.344Z,13.07
2019-06-20T00:09:18.476Z,10.50
2019-06-20T00:11:47.224Z,10.83
2019-06-20T00:14:15.637Z,11.60
2019-06-20T00:16:46.489Z,13.03
2019-06-20T00:19:14.729Z,8.30
2019-06-20T00:21:43.322Z,6.17
2019-06-20T00:24:11.715Z,5.87
2019-06-20T00:26:40.151Z,6.37
2019-06-20T00:29:08.540Z,6.07
2019-06-20T00:31:36.796Z,5.03
2019-06-20T00:34:05.783Z,5.30
2019-06-20T00:36:34.006Z,4.47
2019-06-20T00:39:04.267Z,3.70
2019-06-20T00:41:32.851Z,3.57
2019-06-20T00:44:01.415Z,3.63
2019-06-20T00:46:29.563Z,4.43
2019-06-20T00:48:57.990Z,4.70
2019-06-20T00:51:26.513Z,3.90
2019-06-20T00:53:54.896Z,5.07
2019-06-20T00:56:23.099Z,4.10
2019-06-20T00:58:51.672Z,5.63
2019-06-20T01:01:19.924Z,5.70
2019-06-20T01:03:48.123Z,4.97
2019-06-20T01:06:18.587Z,7.03
2019-06-20T01:08:47.296Z,7.40
2019-06-20T01:11:15.431Z,6.53
2019-06-20T01:13:43.517Z,9.03
2019-06-20T01:16:11.978Z,7.57
2019-06-20T01:18:40.705Z,5.93
2019-06-20T01:21:09.185Z,7.27
2019-06-20T01:23:37.575Z,6.57
2019-06-20T01:26:05.688Z,5.93
2019-06-20T01:28:34.964Z,6.23
2019-06-20T01:31:03.200Z,6.67
2019-06-20T01:33:31.488Z,7.30
2019-06-20T01:35:59.791Z,7.53
2019-06-20T01:38:28.187Z,8.10
2019-06-20T01:40:56.451Z,6.57
2019-06-20T01:43:24.634Z,6.47
2019-06-20T01:45:54.770Z,6.87
2019-06-20T01:48:22.936Z,5.80
2019-06-20T01:50:51.243Z,6.07
2019-06-20T01:53:19.529Z,7.50
2019-06-20T01:55:48.908Z,5.63
2019-06-20T01:58:17.662Z,6.67
2019-06-20T02:00:47.101Z,7.37
2019-06-20T02:03:15.760Z,6.00
2019-06-20T02:05:44.469Z,6.10
2019-06-20T02:08:12.976Z,5.70
2019-06-20T02:10:41.286Z,9.03
2019-06-20T02:13:10.006Z,5.53
2019-06-20T02:15:38.300Z,6.70
2019-06-20T02:18:06.772Z,5.37
2019-06-20T02:20:37.281Z,5.97
2019-06-20T02:23:06.251Z,6.00
2019-06-20T02:25:34.446Z,5.13
2019-06-20T02:28:03.028Z,7.10
2019-06-20T02:30:31.652Z,4.03
2019-06-20T02:32:59.757Z,5.57
2019-06-20T02:35:27.973Z,4.97
2019-06-20T02:37:58.032Z,6.30
2019-06-20T02:40:26.252Z,8.03
2019-06-20T02:42:54.942Z,8.67
2019-06-20T02:45:23.340Z,10.67
2019-06-20T02:47:51.612Z,11.03
2019-06-20T02:50:20.974Z,7.83
2019-06-20T02:52:50.692Z,8.17
2019-06-20T02:55:19.180Z,10.90
2019-06-20T02:57:47.396Z,8.40
2019-06-20T03:00:22.793Z,9.53
2019-06-20T03:02:51.370Z,13.30
2019-06-20T03:05:19.713Z,10.10
2019-06-20T03:07:49.792Z,13.80
2019-06-20T03:10:18.389Z,11.80
2019-06-20T03:12:47.150Z,11.37
2019-06-20T03:15:15.628Z,11.33
2019-06-20T03:17:44.230Z,10.63
2019-06-20T03:20:12.699Z,10.87
2019-06-20T03:22:41.514Z,14.50
2019-06-20T03:25:11.448Z,13.13
2019-06-20T03:27:39.821Z,14.40
2019-06-20T03:30:08.392Z,12.93
2019-06-20T03:32:36.616Z,13.27
2019-06-20T03:35:04.955Z,12.33
2019-06-20T03:37:33.756Z,10.63
2019-06-20T03:40:02.527Z,13.47
2019-06-20T03:42:32.541Z,9.77
2019-06-20T03:45:02.787Z,10.20
2019-06-20T03:47:31.113Z,10.90
2019-06-20T03:49:59.408Z,10.50
2019-06-20T03:52:29.488Z,10.37
2019-06-20T03:54:58.249Z,10.00
2019-06-20T03:57:26.778Z,10.50
2019-06-20T03:59:55.377Z,9.83
2019-06-20T04:02:23.509Z,9.80
2019-06-20T04:04:52.450Z,9.47
2019-06-20T04:07:20.863Z,10.07
2019-06-20T04:09:50.202Z,8.47
2019-06-20T04:12:18.599Z,8.60
2019-06-20T04:14:49.046Z,10.77
2019-06-20T04:17:17.232Z,9.60
2019-06-20T04:19:45.461Z,12.13
2019-06-20T04:22:13.892Z,8.87
2019-06-20T04:24:42.176Z,10.27
2019-06-20T04:27:10.692Z,8.37
2019-06-20T04:29:39.273Z,7.53
2019-06-20T04:32:07.507Z,6.60
2019-06-20T04:34:35.642Z,7.60
2019-06-20T04:37:03.873Z,5.43
2019-06-20T04:39:32.675Z,6.83
2019-06-20T04:42:00.900Z,5.07
2019-06-20T04:44:29.129Z,5.37
2019-06-20T04:47:03.343Z,4.93
2019-06-20T04:49:33.685Z,5.53
2019-06-20T04:52:02.252Z,13.23
2019-06-20T04:54:30.748Z,8.70
2019-06-20T04:56:59.581Z,8.13
2019-06-20T04:59:27.887Z,7.60
2019-06-20T05:01:57.142Z,7.97
2019-06-20T05:04:27.108Z,8.63
2019-06-20T05:07:05.102Z,7.13
2019-06-20T05:09:33.308Z,8.40
2019-06-20T05:12:01.439Z,6.30
2019-06-20T05:14:29.783Z,6.77
2019-06-20T05:16:58.392Z,6.53
2019-06-20T05:19:26.636Z,6.60
2019-06-20T05:21:54.746Z,7.23
2019-06-20T05:24:25.558Z,7.53
2019-06-20T05:26:55.007Z,5.97
2019-06-20T05:29:23.172Z,6.20
2019-06-20T05:31:51.594Z,7.53
2019-06-20T05:34:19.669Z,7.00
2019-06-20T05:36:47.953Z,6.10
2019-06-20T05:39:16.550Z,6.23
2019-06-20T05:41:44.819Z,5.47
2019-06-20T05:44:12.953Z,7.07
2019-06-20T05:46:41.126Z,5.13
2019-06-20T05:49:09.933Z,5.10
2019-06-20T05:51:39.806Z,6.40
2019-06-20T05:54:08.443Z,4.93
2019-06-20T05:56:36.578Z,4.47
2019-06-20T05:59:04.805Z,4.33
2019-06-20T06:01:33.366Z,4.40
2019-06-20T06:04:02.273Z,4.37
2019-06-20T06:06:30.584Z,4.03
2019-06-20T06:08:58.817Z,3.97
2019-06-20T06:11:28.416Z,3.13
2019-06-20T06:13:56.987Z,3.40
2019-06-20T06:16:27.230Z,2.60
2019-06-20T06:18:55.246Z,2.90
2019-06-20T06:21:23.389Z,3.57
2019-06-20T06:23:51.639Z,4.43
2019-06-20T06:26:20.652Z,2.60
2019-06-20T06:28:50.261Z,2.57
2019-06-20T06:31:18.540Z,4.53
2019-06-20T06:33:47.192Z,2.23
2019-06-20T06:36:15.389Z,4.43
2019-06-20T06:38:43.550Z,2.10
2019-06-20T06:41:12.210Z,2.60
2019-06-20T06:43:41.911Z,4.93
2019-06-20T06:46:10.795Z,5.30
2019-06-20T06:48:39.094Z,3.53
2019-06-20T06:51:07.551Z,3.70
2019-06-20T06:53:36.514Z,2.40
2019-06-20T06:56:04.770Z,1.80
2019-06-20T06:58:33.543Z,3.23
2019-06-20T07:01:02.761Z,2.10
2019-06-20T07:03:31.601Z,2.57
2019-06-20T07:06:00.067Z,4.27
2019-06-20T07:08:28.441Z,1.83
2019-06-20T07:10:57.334Z,5.47
2019-06-20T07:13:26.254Z,2.07
2019-06-20T07:15:54.403Z,1.73
2019-06-20T07:18:22.866Z,3.43
2019-06-20T07:20:51.100Z,1.60
2019-06-20T07:23:19.380Z,1.43
2019-06-20T07:25:47.960Z,1.60
2019-06-20T07:28:16.283Z,4.27
2019-06-20T07:30:44.852Z,1.70
2019-06-20T07:33:13.024Z,1.40
2019-06-20T07:35:41.965Z,1.53
2019-06-20T07:38:10.494Z,1.63
2019-06-20T07:40:38.880Z,1.50
2019-06-20T07:43:07.769Z,1.53
2019-06-20T07:45:36.478Z,1.40
2019-06-20T07:48:06.138Z,1.83
2019-06-20T07:50:34.844Z,3.77
2019-06-20T07:53:03.178Z,2.23
2019-06-20T07:55:31.654Z,3.97
2019-06-20T07:57:59.925Z,1.67
2019-06-20T08:00:28.453Z,2.80
2019-06-20T08:02:56.760Z,1.47
2019-06-20T08:05:26.193Z,2.43
2019-06-20T08:07:55.106Z,1.90
2019-06-20T08:10:23.926Z,2.30
2019-06-20T08:12:52.478Z,2.20
2019-06-20T08:15:22.638Z,1.97
2019-06-20T08:17:50.820Z,2.13
2019-06-20T08:20:20.868Z,2.93
2019-06-20T08:22:49.664Z,3.00
2019-06-20T08:25:18.296Z,2.10
2019-06-20T08:27:50.005Z,3.07
2019-06-20T08:30:20.797Z,2.30
2019-06-20T08:32:49.722Z,2.23
2019-06-20T08:35:21.448Z,1.90
2019-06-20T08:37:50.468Z,7.57
2019-06-20T08:40:19.750Z,2.70
2019-06-20T08:42:48.835Z,2.53
2019-06-20T08:45:18.157Z,2.47
2019-06-20T08:47:46.770Z,2.13
2019-06-20T08:50:15.758Z,2.27
2019-06-20T08:52:44.133Z,2.23
2019-06-20T08:55:12.688Z,3.63
2019-06-20T08:57:41.043Z,2.53
2019-06-20T09:00:10.211Z,1.93
2019-06-20T09:02:38.947Z,2.07
2019-06-20T09:05:08.457Z,1.93
2019-06-20T09:07:37.305Z,2.30
2019-06-20T09:10:06.727Z,2.13
2019-06-20T09:12:35.521Z,2.53
2019-06-20T09:15:05.200Z,2.23
2019-06-20T09:17:33.819Z,2.20
2019-06-20T09:20:02.958Z,3.30
2019-06-20T09:22:32.618Z,2.10
2019-06-20T09:25:00.994Z,2.10
2019-06-20T09:27:29.502Z,2.93
2019-06-20T09:29:58.534Z,6.40
2019-06-20T09:32:29.763Z,3.00
2019-06-20T09:34:58.687Z,3.57
2019-06-20T09:37:27.392Z,3.73
2019-06-20T09:39:57.158Z,2.47
2019-06-20T09:42:26.081Z,3.83
2019-06-20T09:44:54.516Z,3.00
2019-06-20T09:47:23.021Z,3.20
2019-06-20T09:49:55.062Z,4.03
2019-06-20T09:52:22.173Z,2.37
2019-06-20T09:54:51.639Z,2.93
2019-06-20T09:57:20.094Z,2.50
2019-06-20T09:59:59.224Z,2.30
2019-06-20T10:02:19.384Z,3.10
2019-06-20T10:04:49.188Z,3.20
2019-06-20T10:07:17.936Z,2.40
2019-06-20T10:09:47.062Z,5.13
2019-06-20T10:12:16.440Z,7.33
2019-06-20T10:14:46.325Z,4.27
2019-06-20T10:17:14.899Z,8.93
2019-06-20T10:19:43.169Z,3.97
2019-06-20T10:22:11.808Z,3.17
2019-06-20T10:24:40.361Z,2.50
2019-06-20T10:27:08.678Z,2.47
2019-06-20T10:29:37.415Z,2.90
2019-06-20T10:32:05.990Z,3.63
2019-06-20T10:34:34.515Z,2.93
2019-06-20T10:37:02.807Z,3.10
2019-06-20T10:39:31.137Z,2.53
2019-06-20T10:42:01.041Z,3.30
2019-06-20T10:44:30.055Z,2.33
2019-06-20T10:46:59.599Z,2.57
2019-06-20T10:49:27.916Z,3.57
2019-06-20T10:51:56.104Z,5.17
2019-06-20T10:54:25.986Z,7.97
2019-06-20T10:56:54.301Z,5.60
2019-06-20T10:59:22.652Z,5.60
2019-06-20T11:01:51.265Z,4.33
2019-06-20T11:04:19.468Z,3.13
2019-06-20T11:06:47.741Z,3.67
2019-06-20T11:09:18.019Z,4.53
2019-06-20T11:11:47.131Z,3.57
2019-06-20T11:14:15.836Z,3.10
2019-06-20T11:16:45.224Z,2.30
2019-06-20T11:19:13.972Z,2.30
2019-06-20T11:21:43.224Z,4.00
2019-06-20T11:24:11.537Z,3.13
2019-06-20T11:26:41.054Z,2.47
2019-06-20T11:29:10.080Z,3.07
2019-06-20T11:31:43.388Z,3.23
2019-06-20T11:34:10.475Z,3.73
2019-06-20T11:36:40.301Z,2.03
2019-06-20T11:39:09.051Z,2.53
2019-06-20T11:41:38.112Z,2.30
2019-06-20T11:44:08.178Z,1.50
2019-06-20T11:46:37.016Z,1.80
2019-06-20T11:49:05.947Z,1.73
2019-06-20T11:51:35.989Z,2.60
2019-06-20T11:54:04.585Z,3.37
2019-06-20T11:56:34.040Z,2.70
2019-06-20T11:59:02.436Z,2.00
2019-06-20T12:01:33.091Z,2.57
2019-06-20T12:04:01.332Z,1.93
2019-06-20T12:06:29.591Z,2.27
2019-06-20T12:08:57.977Z,2.70
2019-06-20T12:11:26.316Z,1.70
2019-06-20T12:13:54.901Z,1.70
2019-06-20T12:16:23.472Z,3.97
2019-06-20T12:18:52.109Z,2.40
2019-06-20T12:21:20.464Z,2.00
2019-06-20T12:23:49.025Z,1.83
2019-06-20T12:26:17.290Z,2.20
2019-06-20T12:28:46.617Z,2.00
2019-06-20T12:31:19.369Z,2.60
2019-06-20T12:33:47.163Z,2.83
2019-06-20T12:36:15.559Z,2.80
2019-06-20T12:38:46.278Z,2.13
2019-06-20T12:41:13.752Z,2.13
2019-06-20T12:43:44.492Z,3.77
2019-06-20T12:46:13.360Z,2.50
2019-06-20T12:48:42.823Z,3.23
2019-06-20T12:51:11.516Z,2.70
2019-06-20T12:53:41.984Z,4.50
2019-06-20T12:56:10.333Z,2.70
2019-06-20T12:58:39.455Z,3.37
2019-06-20T13:01:09.648Z,3.50
2019-06-20T13:03:39.064Z,4.40
2019-06-20T13:06:08.764Z,3.30
2019-06-20T13:08:39.026Z,6.50
2019-06-20T13:11:09.760Z,4.20
2019-06-20T13:13:42.123Z,3.27
2019-06-20T13:16:12.769Z,3.10
2019-06-20T13:18:42.718Z,5.40
2019-06-20T13:21:12.594Z,6.90
2019-06-20T13:23:41.555Z,8.50
2019-06-20T13:26:10.637Z,4.47
2019-06-20T13:28:54.297Z,7.70
2019-06-20T13:31:09.006Z,7.10
2019-06-20T13:33:39.040Z,4.53
2019-06-20T13:36:08.326Z,4.50
2019-06-20T13:38:38.006Z,5.67
2019-06-20T13:41:08.526Z,5.47
2019-06-20T13:43:37.024Z,4.00
2019-06-20T13:46:05.913Z,5.23
2019-06-20T13:48:34.320Z,3.93
2019-06-20T13:51:02.887Z,3.00
2019-06-20T13:53:31.336Z,4.53
2019-06-20T13:56:00.173Z,3.10
2019-06-20T13:58:28.456Z,5.47
2019-06-20T14:00:57.134Z,2.50
2019-06-20T14:03:25.628Z,3.47
2019-06-20T14:05:54.088Z,2.97
2019-06-20T14:08:23.872Z,3.30
2019-06-20T14:10:52.470Z,7.30
2019-06-20T14:13:21.204Z,4.30
2019-06-20T14:15:51.144Z,4.87
2019-06-20T14:18:21.505Z,2.70
2019-06-20T14:20:50.843Z,2.30
2019-06-20T14:23:20.008Z,4.70
2019-06-20T14:25:49.766Z,4.50
2019-06-20T14:28:18.563Z,2.47
2019-06-20T14:30:48.413Z,2.83
2019-06-20T14:33:18.453Z,2.07
2019-06-20T14:35:50.763Z,3.20
2019-06-20T14:38:19.790Z,2.53
2019-06-20T14:40:48.342Z,3.33
2019-06-20T14:43:18.325Z,2.00
2019-06-20T14:45:48.606Z,2.40
2019-06-20T14:48:20.869Z,3.80
2019-06-20T14:50:51.276Z,1.73
2019-06-20T14:53:20.061Z,3.13
2019-06-20T14:55:49.632Z,1.90
2019-06-20T14:58:18.018Z,2.67
2019-06-20T15:00:46.993Z,1.90
2019-06-20T15:03:18.273Z,3.33
2019-06-20T15:05:48.311Z,3.00
2019-06-20T15:08:17.392Z,4.30
2019-06-20T15:10:50.277Z,2.00
2019-06-20T15:13:19.191Z,1.83
2019-06-20T15:15:48.320Z,2.70
2019-06-20T15:18:17.707Z,2.20
2019-06-20T15:20:46.949Z,2.30
2019-06-20T15:23:16.815Z,2.53
2019-06-20T15:25:48.420Z,2.97
2019-06-20T15:28:16.783Z,1.97
2019-06-20T15:30:47.064Z,1.93
2019-06-20T15:33:15.599Z,3.00
2019-06-20T15:35:44.603Z,2.33
2019-06-20T15:38:13.332Z,1.97
2019-06-20T15:40:41.846Z,2.13
2019-06-20T15:43:12.140Z,1.97
2019-06-20T15:45:40.436Z,2.47
2019-06-20T15:48:09.613Z,1.83
2019-06-20T15:50:38.424Z,1.90
2019-06-20T15:53:07.070Z,1.63
2019-06-20T15:55:35.443Z,1.97
2019-06-20T15:58:04.254Z,3.03
2019-06-20T16:00:33.570Z,2.07
2019-06-20T16:03:10.041Z,1.90
2019-06-20T16:05:32.234Z,1.73
2019-06-20T16:08:01.489Z,1.97
2019-06-20T16:10:29.883Z,2.77
2019-06-20T16:12:58.638Z,2.63
2019-06-20T16:15:27.069Z,2.60
2019-06-20T16:17:55.598Z,4.43
2019-06-20T16:20:24.464Z,4.37
2019-06-20T16:22:54.660Z,2.90
2019-06-20T16:25:23.169Z,4.27
2019-06-20T16:27:51.636Z,4.67
2019-06-20T16:30:20.899Z,3.40
2019-06-20T16:32:49.552Z,4.30
2019-06-20T16:35:18.191Z,3.77
2019-06-20T16:37:46.524Z,2.83
2019-06-20T16:40:15.047Z,2.70
2019-06-20T16:42:43.371Z,3.47
2019-06-20T16:45:12.453Z,2.30
2019-06-20T16:47:41.087Z,3.07
2019-06-20T16:50:09.679Z,3.60
2019-06-20T16:52:38.148Z,2.63
2019-06-20T16:55:07.149Z,4.87
2019-06-20T16:57:38.996Z,3.93
2019-06-20T17:00:08.301Z,2.17
2019-06-20T17:02:37.680Z,2.93
2019-06-20T17:05:06.171Z,2.70
2019-06-20T17:07:34.647Z,2.40
2019-06-20T17:10:04.064Z,2.70
2019-06-20T17:12:32.577Z,2.50
2019-06-20T17:15:01.826Z,3.57
2019-06-20T17:17:30.099Z,2.90
2019-06-20T17:19:58.290Z,2.60
2019-06-20T17:22:26.841Z,5.33
2019-06-20T17:24:56.431Z,2.20
2019-06-20T17:27:25.062Z,1.90
2019-06-20T17:29:53.824Z,2.33
2019-06-20T17:32:22.171Z,2.47
2019-06-20T17:34:50.785Z,2.37
2019-06-20T17:37:19.104Z,1.80
2019-06-20T17:39:47.417Z,2.30
2019-06-20T17:42:15.645Z,2.03
2019-06-20T17:44:43.883Z,2.17
2019-06-20T17:47:12.436Z,2.23
2019-06-20T17:49:40.543Z,2.57
2019-06-20T17:52:09.718Z,2.13
2019-06-20T17:54:38.016Z,1.90
2019-06-20T17:57:08.356Z,4.17
2019-06-20T17:59:37.106Z,3.00
2019-06-20T18:02:05.471Z,3.00
2019-06-20T18:04:33.721Z,4.43
2019-06-20T18:07:03.159Z,2.37
2019-06-20T18:09:33.103Z,3.37
2019-06-20T18:12:02.267Z,2.30
2019-06-20T18:14:34.097Z,2.63
2019-06-20T18:17:01.824Z,2.60
2019-06-20T18:19:32.142Z,2.43
2019-06-20T18:22:02.676Z,2.47
2019-06-20T18:24:31.224Z,2.30
2019-06-20T18:26:59.590Z,2.43
2019-06-20T18:29:29.055Z,3.77
2019-06-20T18:31:57.367Z,2.33
2019-06-20T18:34:29.936Z,2.70
2019-06-20T18:36:57.112Z,2.13
2019-06-20T18:39:25.607Z,3.10
2019-06-20T18:41:54.380Z,2.30
2019-06-20T18:44:22.647Z,2.30
2019-06-20T18:46:51.089Z,3.00
2019-06-20T18:49:19.583Z,4.10
2019-06-20T18:51:47.965Z,2.40
2019-06-20T18:54:17.792Z,2.93
2019-06-20T18:56:47.819Z,4.27
2019-06-20T18:59:16.152Z,3.20
2019-06-20T19:01:44.378Z,5.70
2019-06-20T19:04:13.728Z,4.07
2019-06-20T19:06:41.981Z,3.23
2019-06-20T19:09:10.601Z,4.37
2019-06-20T19:11:39.175Z,3.43
2019-06-20T19:14:08.054Z,2.87
2019-06-20T19:16:36.605Z,2.97
2019-06-20T19:19:05.241Z,3.43
2019-06-20T19:21:35.706Z,3.20
2019-06-20T19:24:04.602Z,4.83
2019-06-20T19:26:33.146Z,4.07
2019-06-20T19:29:01.487Z,5.47
2019-06-20T19:31:29.634Z,5.07
2019-06-20T19:33:58.118Z,4.43
2019-06-20T19:36:26.724Z,4.87
2019-06-20T19:38:55.152Z,5.00
2019-06-20T19:41:23.887Z,5.47
2019-06-20T19:43:52.288Z,8.37
2019-06-20T19:46:21.617Z,4.77
2019-06-20T19:48:50.167Z,3.90
2019-06-20T19:51:19.620Z,3.10
2019-06-20T19:53:48.757Z,3.67
2019-06-20T19:56:16.924Z,5.10
2019-06-20T19:58:45.613Z,3.23
2019-06-20T20:01:15.010Z,3.60
2019-06-20T20:03:43.268Z,3.00
2019-06-20T20:06:11.645Z,4.40
2019-06-20T20:08:39.714Z,3.87
2019-06-20T20:11:08.039Z,4.37
2019-06-20T20:13:36.350Z,4.40
2019-06-20T20:16:04.846Z,2.40
2019-06-20T20:18:34.896Z,2.40
2019-06-20T20:21:03.269Z,2.93
2019-06-20T20:23:31.725Z,2.27
2019-06-20T20:26:00.091Z,5.17
2019-06-20T20:28:29.442Z,4.00
2019-06-20T20:30:59.415Z,3.43
2019-06-20T20:33:27.816Z,4.00
2019-06-20T20:35:56.129Z,3.63
2019-06-20T20:38:24.677Z,2.23
2019-06-20T20:40:52.889Z,4.33
2019-06-20T20:43:21.370Z,2.30
2019-06-20T20:45:51.980Z,2.93
2019-06-20T20:48:20.513Z,4.53
2019-06-20T20:50:48.761Z,2.60
2019-06-20T20:53:17.286Z,2.20
2019-06-20T20:55:46.137Z,3.03
2019-06-20T20:58:14.976Z,5.50
2019-06-20T21:00:59.086Z,3.30
2019-06-20T21:03:32.669Z,2.77
2019-06-20T21:06:03.920Z,2.30
2019-06-20T21:08:34.951Z,2.63
2019-06-20T21:11:03.662Z,3.33
2019-06-20T21:13:31.914Z,2.57
2019-06-20T21:16:02.087Z,4.13
2019-06-20T21:18:30.609Z,2.40
2019-06-20T21:20:58.880Z,3.33
2019-06-20T21:23:27.145Z,3.10
2019-06-20T21:25:55.751Z,5.07
2019-06-20T21:28:25.139Z,3.53
2019-06-20T21:30:53.272Z,3.13
2019-06-20T21:33:22.837Z,2.63
2019-06-20T21:36:06.973Z,4.20
2019-06-20T21:38:21.633Z,2.73
2019-06-20T21:40:49.740Z,3.27
2019-06-20T21:43:17.997Z,4.43
2019-06-20T21:45:46.820Z,3.07
2019-06-20T21:48:15.419Z,2.27
2019-06-20T21:50:43.791Z,2.97
2019-06-20T21:53:12.168Z,2.83
2019-06-20T21:55:40.382Z,3.13
2019-06-20T21:58:09.120Z,2.63
2019-06-20T22:00:41.070Z,2.63
2019-06-20T22:03:11.626Z,2.93
2019-06-20T22:05:40.958Z,1.93
2019-06-20T22:08:09.706Z,4.33
2019-06-20T22:10:38.273Z,2.97
2019-06-20T22:13:07.790Z,2.23
2019-06-20T22:15:37.137Z,1.90
2019-06-20T22:18:06.979Z,2.10
2019-06-20T22:20:36.451Z,2.00
2019-06-20T22:23:05.800Z,2.57
2019-06-20T22:25:34.275Z,2.37
2019-06-20T22:28:02.642Z,2.67
2019-06-20T22:30:45.247Z,2.20
2019-06-20T22:33:14.604Z,6.07
2019-06-20T22:35:45.980Z,2.60
2019-06-20T22:38:14.633Z,2.47
2019-06-20T22:40:43.182Z,2.03
2019-06-20T22:43:11.453Z,2.23
2019-06-20T22:45:39.831Z,3.33
2019-06-20T22:48:08.511Z,2.17
2019-06-20T22:50:37.589Z,2.13
2019-06-20T22:53:06.160Z,1.87
2019-06-20T22:55:34.431Z,2.07
2019-06-20T22:58:04.705Z,2.10
2019-06-20T23:00:33.097Z,4.73
2019-06-20T23:03:01.547Z,3.57
2019-06-20T23:05:31.222Z,2.30
2019-06-20T23:07:59.528Z,2.90
2019-06-20T23:10:28.065Z,2.00
2019-06-20T23:12:56.607Z,2.30
2019-06-20T23:15:24.802Z,2.27
2019-06-20T23:17:55.964Z,2.53
2019-06-20T23:20:24.243Z,1.93
2019-06-20T23:22:52.425Z,2.50
2019-06-20T23:25:20.804Z,1.83
2019-06-20T23:27:49.966Z,1.83
2019-06-20T23:30:18.533Z,1.97
2019-06-20T23:32:46.790Z,3.23
2019-06-20T23:35:15.293Z,3.33
2019-06-20T23:37:43.908Z,2.70
2019-06-20T23:40:12.402Z,1.53
2019-06-20T23:42:40.792Z,2.27
2019-06-20T23:45:09.517Z,3.77
2019-06-20T23:47:38.149Z,1.83
2019-06-20T23:50:08.746Z,1.30
2019-06-20T23:52:42.226Z,2.60
2019-06-20T23:55:10.463Z,2.20
2019-06-20T23:57:38.798Z,1.90
